Chickering American River Reserve, California Weather observations

Data are for 10 minute period ending at time listed.
 Day   Time   Solar   Ave.   Ave.  Ave.  Vector  Max.   Baro.   Total    
  of    of     Rad.   Air    Rel.  Wind   Wind   Wind  Press.  Precip.   
Year   Day            Temp.  Hum.  Speed  Dir.   Gust                    
2015   (PST)  Kw/m2    F      %     mph   deg.    mph    mb.     in.     
-------------------------------------------------------------------------
 116   18:10   0.02   48.7    51    1.9    31     9.6   820.8    0.00 
 116   18:20   0.01   49.1    56    0.9   198     3.4   820.9    0.00 
 116   18:30   0.00   46.6    63    1.3   227     2.9   820.9    0.00 
 116   18:40   0.00   45.3    69    1.0   214     2.7   821.0    0.00 
 116   18:50   0.00   45.4    63    0.8   168     5.3   821.1    0.00 
 116   19:00   0.00   44.5    67    1.1   209     2.8   821.1    0.00 
 116   19:10   0.00   43.8    66    1.2   233     2.8   821.2    0.00 
 116   19:20   0.00   42.6    72    1.7   228     2.9   821.2    0.00 
 116   19:30   0.00   42.1    70    1.5   214     4.0   821.3    0.00 
 116   19:40   0.00   42.2    69    1.8   218     4.0   821.3    0.00 
 116   19:50   0.00   42.8    65    1.0   255     3.4   821.3    0.00 
 116   20:00   0.00   42.5    64    1.4   284     3.9   821.4    0.00 
 116   20:10   0.00   42.6    63    2.1    36     7.5   821.4    0.00 
 116   20:20   0.00   42.9    64    1.0   124     4.7   821.5    0.00 
 116   20:30   0.00   42.8    61    1.7    57     8.6   821.5    0.00 
 116   20:40   0.00   43.6    58    2.1    20     8.6   821.5    0.00 
 116   20:50   0.00   43.1    61    1.8   252     3.4   821.5    0.00 
 116   21:00   0.00   42.7    59    1.6   250     3.8   821.5    0.00 
 116   21:10   0.00   42.4    61    1.7   236     3.4   821.5    0.00 
 116   21:20   0.00   41.9    64    2.3   236     3.8   821.5    0.00 
 116   21:30   0.00   41.2    65    1.6   235     3.9   821.5    0.00 
 116   21:40   0.00   39.7    71    2.6   208     4.6   821.3    0.00 
 116   21:50   0.00   39.9    68    2.6   215     6.4   821.2    0.00 
 116   22:00   0.00   39.8    68    3.2   226     5.2   821.1    0.00 
 116   22:10   100.00  99999.0   99999  99999.0   99999   99999.0   99999.0   99999.00 
 116   22:20   100.00  99999.0   99999  99999.0   99999   99999.0   99999.0   99999.00 
 116   22:30   100.00  99999.0   99999  99999.0   99999   99999.0   99999.0   99999.00 
 116   22:40   100.00  99999.0   99999  99999.0   99999   99999.0   99999.0   99999.00 
 116   22:50   100.00  99999.0   99999  99999.0   99999   99999.0   99999.0   99999.00 
 116   23:00   100.00  99999.0   99999  99999.0   99999   99999.0   99999.0   99999.00 
 116   23:10   0.00   47.4    44    6.6    56    22.5   821.1    0.00 
 116   23:20   0.00   47.3    44    4.9    62    15.6   821.1    0.00 
 116   23:30   0.00   47.2    44    5.7    51    15.7   821.2    0.00 
 116   23:40   0.00   47.3    43    5.8    42    20.1   821.2    0.00 
 116   23:50   0.00   47.2    44    4.8    66    17.2   821.2    0.00 
 117    0:00   0.00   47.3    43    4.8    59    11.2   821.1    0.00 
 117    0:10   0.00   47.2    43    5.5    52    15.1   821.2    0.00 
 117    0:20   0.00   46.9    44    4.2    73    14.8   821.2    0.00 
 117    0:30   0.00   46.8    46    2.3    43    13.7   821.2    0.00 
 117    0:40   0.00   46.2    46    1.6    52     8.2   821.1    0.00 
 117    0:50   0.00   45.9    47    1.6    96    10.7   821.1    0.00 
 117    1:00   0.00   45.1    49    1.4   342     6.1   821.1    0.00 
 117    1:10   0.00   44.6    51    2.2    17    11.0   821.0    0.00 
 117    1:20   0.00   43.9    53    2.4    60     8.8   821.0    0.00 
 117    1:30   0.00   45.0    48    2.6    50    11.8   820.9    0.00 
 117    1:40   0.00   44.8    50    2.8    18    13.6   820.9    0.00 
 117    1:50   0.00   45.9    45    5.0    52    15.0   820.9    0.00 
 117    2:00   0.00   46.1    46    3.4    55    12.9   820.9    0.00 
 117    2:10   0.00   45.7    47    2.5    72    11.0   820.8    0.00 
 117    2:20   0.00   45.5    46    2.2    71     8.8   820.8    0.00 
 117    2:30   0.00   45.5    47    1.6   332     8.4   820.7    0.00 
 117    2:40   0.00   44.9    48    2.2   129     6.5   820.8    0.00 
 117    2:50   0.00   45.1    49    1.4   229     3.9   820.8    0.00 
 117    3:00   0.00   43.8    52    1.2   272     3.6   820.9    0.00 
 117    3:10   0.00   42.8    56    1.5   250     2.9   820.9    0.00 
 117    3:20   0.00   42.6    54    1.5   242     4.4   820.9    0.00 
 117    3:30   0.00   42.3    57    1.2   270     3.1   821.0    0.00 
 117    3:40   0.00   42.0    56    1.0   111     6.6   821.1    0.00 
 117    3:50   0.00   43.4    52    2.9    73    10.4   821.0    0.00 
 117    4:00   0.00   44.8    50    1.3    33     4.5   821.1    0.00 
 117    4:10   0.00   43.6    55    1.3   130     5.6   821.1    0.00 
 117    4:20   0.00   43.0    58    1.2    68     3.5   821.2    0.00 
 117    4:30   0.00   41.6    62    1.5    78     5.5   821.3    0.00 
 117    4:40   0.00   40.6    64    1.7    39     5.9   821.3    0.00 
 117    4:50   0.00   40.2    63    1.9    60     5.4   821.2    0.00 
 117    5:00   0.00   40.6    61    2.0    52     4.9   821.1    0.00 
 117    5:10   0.00   42.0    56    2.9    59     9.1   821.1    0.00 
 117    5:20   0.00   43.3    53    3.1    57    11.2   821.1    0.00 
 117    5:30   0.00   44.2    51    2.4    86    10.5   821.0    0.00 
 117    5:40   0.01   44.3    50    2.9    65    10.4   821.1    0.00 
 117    5:50   0.01   44.3    50    2.3    58     6.9   821.3    0.00 
 117    6:00   0.02   44.7    49    2.5    86    10.6   821.3    0.00 
 117    6:10   0.03   45.0    50    2.2   171    10.1   821.1    0.00 
 117    6:20   0.06   46.7    43    3.0   120     8.0   821.2    0.00 
 117    6:30   0.19   47.2    42    4.7    55    13.9   821.4    0.00 
 117    6:40   0.17   47.6    42    4.3    86    15.2   821.4    0.00 
 117    6:50   0.19   47.9    41    5.4    71    16.0   821.3    0.00 
 117    7:00   0.29   48.5    40    5.0    79    17.2   821.4    0.00 
 117    7:10   0.36   49.4    39    4.6    82    12.1   821.5    0.00 
 117    7:20   0.40   50.7    39    3.6    89    12.8   821.5    0.00 
 117    7:30   0.43   51.4    38    4.1    87    11.5   821.6    0.00 
 117    7:40   0.47   51.6    38    4.1    81    12.0   821.6    0.00 
 117    7:50   0.51   52.1    40    3.1    46    13.7   821.7    0.00 
 117    8:00   0.54   52.3    40    4.4    38    11.8   821.8    0.00 
 117    8:10   0.57   52.5    40    4.3    56    13.9   821.8    0.00 
 117    8:20   0.61   52.6    40    5.0    54    11.8   821.8    0.00 
 117    8:30   0.64   53.1    41    4.6    47    16.7   821.6    0.00 
 117    8:40   0.67   54.2    40    3.4    51     8.8   821.5    0.00 
 117    8:50   0.70   55.1    39    2.6    68     8.9   821.5    0.00 
 117    9:00   0.73   56.6    37    2.2    86     9.1   821.4    0.00 
 117    9:10   0.76   57.0    37    3.8    73     9.6   821.4    0.00 
 117    9:20   0.79   56.9    36    3.6    88    10.5   821.4    0.00 
 117    9:30   0.81   57.0    35    2.9    68     8.6   821.3    0.00 
 117    9:40   0.84   57.6    34    3.7   100    11.8   821.3    0.00 
 117    9:50   0.86   57.0    35    3.5   112    12.5   821.2    0.00 
 117   10:00   0.89   56.7    35    4.5    86    19.6   821.2    0.00 
 117   10:10   0.91   57.4    35    3.9    83    11.0   821.3    0.00 
 117   10:20   0.93   56.9    35    4.6    85    13.4   821.5    0.00 
 117   10:30   0.94   56.7    34    4.6    71    12.0   821.4    0.00 
 117   10:40   0.95   56.9    34    5.0    86    16.3   821.4    0.00 
 117   10:50   0.97   58.1    36    4.1    82    15.7   821.4    0.00 
 117   11:00   0.97   58.5    34    4.3    74    12.3   821.4    0.00 
 117   11:10   0.98   58.9    35    3.4    84    12.4   821.4    0.00 
 117   11:20   0.99   59.3    33    4.4    87    13.1   821.3    0.00 
 117   11:30   0.99   58.8    33    4.1    86    14.9   821.3    0.00 
 117   11:40   1.00   59.1    34    3.9    83    12.6   821.3    0.00 
 117   11:50   1.00   60.0    34    3.8   101    17.7   821.3    0.00 
 117   12:00   1.00   59.9    33    4.2    93    15.8   821.3    0.00 
 117   12:10   1.00   60.0    32    4.4    98    17.0   821.2    0.00 
 117   12:20   1.00   60.3    33    3.5    92    11.2   821.1    0.00 
 117   12:30   1.00   60.7    32    4.1    80    18.2   821.1    0.00 
 117   12:40   0.99   60.4    31    4.0    91    11.1   821.0    0.00 
 117   12:50   0.98   60.9    32    3.8    81    14.0   820.9    0.00 
 117   13:00   0.98   61.5    31    3.4    91     9.6   820.8    0.00 
 117   13:10   0.97   62.3    31    3.7   129    10.4   820.8    0.00 
 117   13:20   0.95   62.5    31    4.1   113    12.4   820.8    0.00 
 117   13:30   0.94   63.0    31    4.0   178    10.4   820.8    0.00 
 117   13:40   0.93   63.1    31    3.0   103     9.7   820.8    0.00 
 117   13:50   0.91   63.2    30    4.2    90     9.9   820.8    0.00 
 117   14:00   0.89   62.7    30    3.1   138    10.4   820.7    0.00 
 117   14:10   0.87   64.1    30    2.4   122    11.3   820.6    0.00 
 117   14:20   0.85   64.2    30    3.4    87     9.9   820.5    0.00 
 117   14:30   0.82   64.3    29    2.6    95    10.3   820.5    0.00 
 117   14:40   0.80   65.3    30    1.9   142     6.4   820.4    0.00 
 117   14:50   0.77   66.1    29    1.8   140     7.9   820.4    0.00 
 117   15:00   0.74   65.4    28    3.0    88     8.5   820.3    0.00 
 117   15:10   0.71   65.3    30    2.5    90     9.6   820.2    0.00 
 117   15:20   0.68   64.9    30    1.7    62     7.2   820.2    0.00 
 117   15:30   0.65   65.8    29    2.0    94     9.6   820.2    0.00 
 117   15:40   0.61   65.4    28    2.1   172     5.6   820.1    0.00 
 117   15:50   0.58   65.3    29    1.5   154     5.6   820.0    0.00 
 117   16:00   0.55   65.1    29    1.6   112     5.7   819.9    0.00 
 117   16:10   0.51   64.1    30    2.5    69     6.7   819.9    0.00 
 117   16:20   0.17   62.5    30    2.1    51     6.8   819.9    0.00 
 117   16:30   0.05   62.0    32    1.0   160     3.9   819.9    0.00 
 117   16:40   0.06   62.2    29    1.9    66     6.9   819.8    0.00 
 117   16:50   0.21   61.7    31    2.1   101     6.3   819.9    0.00 
 117   17:00   0.13   61.4    31    1.3    78     6.6   819.9    0.00 
 117   17:10   0.07   60.0    32    0.9    49     3.3   819.9    0.00 
 117   17:20   0.03   59.6    32    1.5    73     4.7   820.0    0.00 
 117   17:30   0.02   58.8    33    2.1    56     5.3   819.9    0.00 
 117   17:40   0.01   58.6    34    1.2    24     5.0   820.0    0.00 
 117   17:50   0.01   56.8    39    0.4   348     2.4   820.1    0.00 
 117   18:00   0.01   55.7    41    0.6   220     2.8   820.2    0.00 

Return to Chickering American River Reserve graphs page.


Western Regional Climate Center,wrcc@dri.edu